createdAt,value
2018-06-10T00:00:54.183Z,0
2018-06-10T00:01:54.180Z,0
2018-06-10T00:02:53.912Z,0
2018-06-10T00:03:54.170Z,0
2018-06-10T00:04:54.164Z,0
2018-06-10T00:05:54.159Z,0
2018-06-10T00:06:54.159Z,0
2018-06-10T00:07:54.405Z,0
2018-06-10T00:08:54.152Z,0
2018-06-10T00:09:54.403Z,0
2018-06-10T00:10:54.408Z,0
2018-06-10T00:11:53.882Z,0
2018-06-10T00:12:53.876Z,0
2018-06-10T00:13:54.131Z,0
2018-06-10T00:14:54.132Z,0
2018-06-10T00:15:54.123Z,0
2018-06-10T00:16:54.384Z,0
2018-06-10T00:17:54.374Z,0
2018-06-10T00:18:54.112Z,0
2018-06-10T00:19:54.370Z,0
2018-06-10T00:20:54.377Z,0
2018-06-10T00:21:54.107Z,0
2018-06-10T00:22:54.097Z,0
2018-06-10T00:23:54.096Z,0
2018-06-10T00:24:54.090Z,0
2018-06-10T00:25:54.083Z,0
2018-06-10T00:26:54.352Z,0
2018-06-10T00:27:54.336Z,0
2018-06-10T00:28:54.074Z,0
2018-06-10T00:29:54.336Z,0
2018-06-10T00:30:54.074Z,0
2018-06-10T00:31:54.079Z,0
2018-06-10T00:32:54.063Z,0
2018-06-10T00:33:53.804Z,0
2018-06-10T00:34:54.058Z,0
2018-06-10T00:35:54.050Z,0
2018-06-10T00:36:54.303Z,0
2018-06-10T00:37:54.297Z,0
2018-06-10T00:38:54.038Z,0
2018-06-10T00:39:54.300Z,0
2018-06-10T00:40:54.285Z,0
2018-06-10T00:41:54.033Z,0
2018-06-10T00:42:54.027Z,0
2018-06-10T00:43:54.020Z,0
2018-06-10T00:44:54.269Z,0
2018-06-10T00:45:54.270Z,0
2018-06-10T00:46:54.019Z,0
2018-06-10T00:47:54.007Z,0
2018-06-10T00:48:53.998Z,0
2018-06-10T00:49:54.262Z,0
2018-06-10T00:50:53.742Z,0
2018-06-10T00:51:53.990Z,0
2018-06-10T00:52:54.243Z,0
2018-06-10T00:53:54.238Z,0
2018-06-10T00:54:53.725Z,0
2018-06-10T00:55:53.719Z,0
2018-06-10T00:56:53.712Z,0
2018-06-10T00:57:53.966Z,0
2018-06-10T00:58:53.969Z,0
2018-06-10T00:59:53.957Z,0
2018-06-10T01:00:53.961Z,0
2018-06-10T01:01:53.957Z,0
2018-06-10T01:02:54.203Z,0
2018-06-10T01:03:53.691Z,0
2018-06-10T01:04:53.940Z,0
2018-06-10T01:05:53.938Z,0
2018-06-10T01:06:53.936Z,0
2018-06-10T01:07:53.933Z,0
2018-06-10T01:08:53.925Z,0
2018-06-10T01:09:53.918Z,0
2018-06-10T01:10:53.668Z,0
2018-06-10T01:11:54.175Z,0
2018-06-10T01:12:53.655Z,0
2018-06-10T01:13:53.391Z,0
2018-06-10T01:14:53.643Z,0
2018-06-10T01:15:53.894Z,0
2018-06-10T01:16:54.152Z,0
2018-06-10T01:17:53.629Z,0
2018-06-10T01:18:54.138Z,0
2018-06-10T01:19:54.139Z,0
2018-06-10T01:20:54.132Z,0
2018-06-10T01:21:54.130Z,0
2018-06-10T01:22:54.134Z,0
2018-06-10T01:23:53.862Z,0
2018-06-10T01:24:53.604Z,0
2018-06-10T01:25:53.598Z,0
2018-06-10T01:26:53.860Z,0
2018-06-10T01:27:54.104Z,0
2018-06-10T01:28:54.106Z,0
2018-06-10T01:29:53.841Z,0
2018-06-10T01:30:54.090Z,0
2018-06-10T01:31:53.831Z,0
2018-06-10T01:32:54.086Z,0
2018-06-10T01:33:53.833Z,0
2018-06-10T01:34:53.821Z,0
2018-06-10T01:35:53.821Z,0
2018-06-10T01:36:53.807Z,0
2018-06-10T01:37:54.061Z,0
2018-06-10T01:38:54.069Z,0
2018-06-10T01:39:53.541Z,0
2018-06-10T01:40:54.054Z,0
2018-06-10T01:41:53.794Z,0
2018-06-10T01:42:53.787Z,0
2018-06-10T01:43:53.783Z,0
2018-06-10T01:44:53.259Z,0
2018-06-10T01:45:53.771Z,0
2018-06-10T01:46:54.032Z,0
2018-06-10T01:47:53.765Z,0
2018-06-10T01:48:53.244Z,0
2018-06-10T01:49:54.013Z,0
2018-06-10T01:50:53.756Z,0
2018-06-10T01:51:54.016Z,0
2018-06-10T01:52:53.749Z,0
2018-06-10T01:53:53.484Z,0
2018-06-10T01:54:53.479Z,0
2018-06-10T01:55:53.990Z,0
2018-06-10T01:56:53.991Z,0
2018-06-10T01:57:53.716Z,0
2018-06-10T01:58:53.971Z,0
2018-06-10T01:59:53.712Z,0
2018-06-10T02:00:53.758Z,0
2018-06-10T02:01:53.995Z,0
2018-06-10T02:02:53.961Z,0
2018-06-10T02:03:53.696Z,0
2018-06-10T02:04:53.956Z,0
2018-06-10T02:05:53.171Z,0
2018-06-10T02:06:53.431Z,0
2018-06-10T02:07:53.933Z,0
2018-06-10T02:08:53.931Z,0
2018-06-10T02:09:53.672Z,0
2018-06-10T02:10:53.661Z,0
2018-06-10T02:11:53.928Z,0
2018-06-10T02:12:53.397Z,0
2018-06-10T02:13:53.910Z,0
2018-06-10T02:14:53.908Z,0
2018-06-10T02:15:53.903Z,0
2018-06-10T02:16:53.900Z,0
2018-06-10T02:17:53.635Z,0
2018-06-10T02:18:53.378Z,0
2018-06-10T02:19:53.367Z,0
2018-06-10T02:20:53.365Z,4
2018-06-10T02:21:53.618Z,4
2018-06-10T02:22:53.872Z,4
2018-06-10T02:23:53.357Z,4
2018-06-10T02:24:53.607Z,0
2018-06-10T02:25:53.871Z,0
2018-06-10T02:26:53.596Z,4
2018-06-10T02:27:53.859Z,4
2018-06-10T02:28:53.329Z,4
2018-06-10T02:29:53.593Z,0
2018-06-10T02:30:53.327Z,4
2018-06-10T02:31:53.846Z,4
2018-06-10T02:32:53.315Z,4
2018-06-10T02:33:53.574Z,8
2018-06-10T02:34:53.845Z,4
2018-06-10T02:35:53.823Z,4
2018-06-10T02:36:53.829Z,8
2018-06-10T02:37:53.557Z,8
2018-06-10T02:38:53.816Z,4
2018-06-10T02:39:53.292Z,12
2018-06-10T02:40:53.285Z,12
2018-06-10T02:41:53.799Z,12
2018-06-10T02:42:53.537Z,12
2018-06-10T02:43:53.803Z,12
2018-06-10T02:44:53.784Z,16
2018-06-10T02:45:53.780Z,16
2018-06-10T02:46:53.779Z,16
2018-06-10T02:47:53.771Z,20
2018-06-10T02:48:53.767Z,20
2018-06-10T02:49:53.515Z,24
2018-06-10T02:50:53.502Z,28
2018-06-10T02:51:53.505Z,32
2018-06-10T02:52:52.977Z,32
2018-06-10T02:53:53.759Z,36
2018-06-10T02:54:53.493Z,44
2018-06-10T02:55:53.741Z,44
2018-06-10T02:56:53.219Z,52
2018-06-10T02:57:53.734Z,56
2018-06-10T02:58:53.469Z,56
2018-06-10T02:59:53.717Z,64
2018-06-10T03:00:53.462Z,68
2018-06-10T03:01:53.457Z,68
2018-06-10T03:02:53.734Z,72
2018-06-10T03:03:53.508Z,76
2018-06-10T03:04:53.185Z,76
2018-06-10T03:05:52.930Z,80
2018-06-10T03:06:53.439Z,80
2018-06-10T03:07:53.810Z,88
2018-06-10T03:08:53.441Z,92
2018-06-10T03:09:53.431Z,96
2018-06-10T03:10:53.431Z,100
2018-06-10T03:11:53.426Z,112
2018-06-10T03:12:53.410Z,116
2018-06-10T03:13:53.153Z,128
2018-06-10T03:14:53.666Z,136
2018-06-10T03:15:53.406Z,148
2018-06-10T03:16:53.665Z,152
2018-06-10T03:17:53.388Z,152
2018-06-10T03:18:53.129Z,152
2018-06-10T03:19:53.126Z,160
2018-06-10T03:20:53.381Z,164
2018-06-10T03:21:53.645Z,176
2018-06-10T03:22:53.631Z,184
2018-06-10T03:23:53.122Z,196
2018-06-10T03:24:53.371Z,204
2018-06-10T03:25:53.622Z,220
2018-06-10T03:26:53.628Z,228
2018-06-10T03:27:53.616Z,240
2018-06-10T03:28:53.604Z,248
2018-06-10T03:29:53.093Z,260
2018-06-10T03:30:53.364Z,276
2018-06-10T03:31:53.353Z,284
2018-06-10T03:32:53.085Z,292
2018-06-10T03:33:53.598Z,296
2018-06-10T03:34:53.585Z,300
2018-06-10T03:35:53.333Z,308
2018-06-10T03:36:53.066Z,324
2018-06-10T03:37:53.328Z,340
2018-06-10T03:38:52.801Z,368
2018-06-10T03:39:53.573Z,388
2018-06-10T03:40:53.308Z,412
2018-06-10T03:41:53.565Z,440
2018-06-10T03:42:53.554Z,472
2018-06-10T03:43:53.550Z,508
2018-06-10T03:44:53.549Z,532
2018-06-10T03:45:53.042Z,544
2018-06-10T03:46:53.549Z,548
2018-06-10T03:47:53.543Z,544
2018-06-10T03:48:53.281Z,548
2018-06-10T03:49:53.275Z,552
2018-06-10T03:50:53.019Z,560
2018-06-10T03:51:53.265Z,584
2018-06-10T03:52:53.517Z,628
2018-06-10T03:53:53.265Z,684
2018-06-10T03:54:53.258Z,748
2018-06-10T03:55:53.519Z,812
2018-06-10T03:56:53.252Z,892
2018-06-10T03:57:52.991Z,996
2018-06-10T03:58:53.248Z,1096
2018-06-10T03:59:53.499Z,1188
2018-06-10T04:00:53.502Z,1272
2018-06-10T04:01:53.243Z,1320
2018-06-10T04:02:53.493Z,1328
2018-06-10T04:03:53.225Z,1288
2018-06-10T04:04:53.488Z,1240
2018-06-10T04:05:52.964Z,1204
2018-06-10T04:06:53.221Z,1192
2018-06-10T04:07:53.219Z,1172
2018-06-10T04:08:52.967Z,1132
2018-06-10T04:09:52.948Z,1076
2018-06-10T04:10:53.467Z,1008
2018-06-10T04:11:53.213Z,960
2018-06-10T04:12:52.943Z,928
2018-06-10T04:13:53.459Z,912
2018-06-10T04:14:53.441Z,904
2018-06-10T04:15:52.936Z,904
2018-06-10T04:16:52.928Z,924
2018-06-10T04:17:53.180Z,928
2018-06-10T04:18:53.437Z,932
2018-06-10T04:19:53.429Z,932
2018-06-10T04:20:53.232Z,932
2018-06-10T04:21:52.915Z,932
2018-06-10T04:22:53.484Z,936
2018-06-10T04:23:53.424Z,932
2018-06-10T04:24:53.164Z,940
2018-06-10T04:25:53.154Z,960
2018-06-10T04:26:53.152Z,988
2018-06-10T04:27:52.894Z,1016
2018-06-10T04:28:52.632Z,1048
2018-06-10T04:29:53.143Z,1064
2018-06-10T04:30:53.401Z,1088
2018-06-10T04:31:52.886Z,1116
2018-06-10T04:32:53.138Z,1148
2018-06-10T04:33:53.137Z,1192
2018-06-10T04:34:53.126Z,1244
2018-06-10T04:35:53.131Z,1300
2018-06-10T04:36:53.120Z,1352
2018-06-10T04:37:53.130Z,1380
2018-06-10T04:38:53.121Z,1408
2018-06-10T04:39:52.856Z,1424
2018-06-10T04:40:53.376Z,1444
2018-06-10T04:41:53.358Z,1464
2018-06-10T04:42:53.360Z,1492
2018-06-10T04:43:52.840Z,1536
2018-06-10T04:44:53.360Z,1628
2018-06-10T04:45:53.093Z,1732
2018-06-10T04:46:53.094Z,1844
2018-06-10T04:47:53.342Z,1948
2018-06-10T04:48:53.088Z,2012
2018-06-10T04:49:52.828Z,2048
2018-06-10T04:50:53.087Z,2076
2018-06-10T04:51:52.828Z,2124
2018-06-10T04:52:52.819Z,2204
2018-06-10T04:53:53.337Z,2316
2018-06-10T04:54:52.817Z,2464
2018-06-10T04:55:53.325Z,2632
2018-06-10T04:56:53.062Z,2772
2018-06-10T04:57:53.075Z,2872
2018-06-10T04:58:53.318Z,2964
2018-06-10T04:59:53.059Z,3056
2018-06-10T05:00:53.309Z,3156
2018-06-10T05:01:53.054Z,3244
2018-06-10T05:02:53.305Z,3304
2018-06-10T05:03:53.050Z,3332
2018-06-10T05:04:53.048Z,3340
2018-06-10T05:05:53.042Z,3324
2018-06-10T05:06:53.037Z,3320
2018-06-10T05:07:53.036Z,3348
2018-06-10T05:08:53.286Z,3448
2018-06-10T05:09:53.287Z,3576
2018-06-10T05:10:53.035Z,3608
2018-06-10T05:11:52.762Z,3540
2018-06-10T05:12:52.767Z,3404
2018-06-10T05:13:53.012Z,3256
2018-06-10T05:14:53.270Z,3168
2018-06-10T05:15:53.012Z,3168
2018-06-10T05:16:52.756Z,3236
2018-06-10T05:17:52.749Z,3344
2018-06-10T05:18:53.268Z,3480
2018-06-10T05:19:53.879Z,3608
2018-06-10T05:20:53.002Z,3756
2018-06-10T05:21:53.018Z,3932
2018-06-10T05:22:52.999Z,4124
2018-06-10T05:23:53.251Z,4324
2018-06-10T05:24:52.737Z,4544
2018-06-10T05:25:53.249Z,4768
2018-06-10T05:26:52.990Z,4980
2018-06-10T05:27:52.980Z,5136
2018-06-10T05:28:52.987Z,5244
2018-06-10T05:29:53.244Z,5316
2018-06-10T05:30:52.718Z,5384
2018-06-10T05:31:52.719Z,5448
2018-06-10T05:32:53.228Z,5548
2018-06-10T05:33:52.715Z,5676
2018-06-10T05:34:52.713Z,5828
2018-06-10T05:35:52.711Z,5988
2018-06-10T05:36:53.232Z,6100
2018-06-10T05:37:52.967Z,6164
2018-06-10T05:38:52.961Z,6164
2018-06-10T05:39:52.959Z,6116
2018-06-10T05:40:53.212Z,6068
2018-06-10T05:41:52.961Z,6040
2018-06-10T05:42:52.964Z,6040
2018-06-10T05:43:52.968Z,6064
2018-06-10T05:44:52.956Z,6072
2018-06-10T05:45:52.696Z,6056
2018-06-10T05:46:52.950Z,6028
2018-06-10T05:47:53.209Z,5992
2018-06-10T05:48:52.689Z,5948
2018-06-10T05:49:52.951Z,5916
2018-06-10T05:50:52.948Z,5920
2018-06-10T05:51:52.948Z,5952
2018-06-10T05:52:53.199Z,5964
2018-06-10T05:53:52.947Z,5948
2018-06-10T05:54:52.941Z,5964
2018-06-10T05:55:53.198Z,6048
2018-06-10T05:56:53.198Z,6208
2018-06-10T05:57:52.939Z,6416
2018-06-10T05:58:52.681Z,6644
2018-06-10T05:59:52.678Z,6852
2018-06-10T06:00:53.192Z,7028
2018-06-10T06:01:52.939Z,7172
2018-06-10T06:02:53.189Z,7256
2018-06-10T06:03:52.933Z,7300
2018-06-10T06:04:52.672Z,7356
2018-06-10T06:05:52.932Z,7456
2018-06-10T06:06:52.927Z,7576
2018-06-10T06:07:52.936Z,7740
2018-06-10T06:08:52.676Z,7924
2018-06-10T06:09:53.226Z,8100
2018-06-10T06:10:52.928Z,8216
2018-06-10T06:11:53.184Z,8320
2018-06-10T06:12:52.666Z,8400
2018-06-10T06:13:52.672Z,8468
2018-06-10T06:14:53.196Z,8500
2018-06-10T06:15:52.673Z,8552
2018-06-10T06:16:52.665Z,8612
2018-06-10T06:17:53.189Z,8620
2018-06-10T06:18:53.186Z,8548
2018-06-10T06:19:52.668Z,8440
2018-06-10T06:20:52.664Z,8344
2018-06-10T06:21:52.409Z,8276
2018-06-10T06:22:52.936Z,8220
2018-06-10T06:23:52.947Z,8196
2018-06-10T06:24:52.935Z,8220
2018-06-10T06:25:53.183Z,8316
2018-06-10T06:26:53.226Z,8440
2018-06-10T06:27:53.181Z,8528
2018-06-10T06:28:53.188Z,8556
2018-06-10T06:29:52.930Z,8564
2018-06-10T06:30:52.929Z,8564
2018-06-10T06:31:52.927Z,8588
2018-06-10T06:32:52.928Z,8636
2018-06-10T06:33:52.929Z,8724
2018-06-10T06:34:52.928Z,8800
2018-06-10T06:35:52.673Z,8816
2018-06-10T06:36:53.198Z,8716
2018-06-10T06:37:52.923Z,8548
2018-06-10T06:38:53.183Z,8316
2018-06-10T06:39:52.663Z,8024
2018-06-10T06:40:53.026Z,7728
2018-06-10T06:41:52.663Z,7440
2018-06-10T06:42:52.921Z,7192
2018-06-10T06:43:53.186Z,6948
2018-06-10T06:44:52.665Z,6732
2018-06-10T06:45:52.925Z,6556
2018-06-10T06:46:53.190Z,6432
2018-06-10T06:47:53.184Z,6348
2018-06-10T06:48:52.927Z,6328
2018-06-10T06:49:53.186Z,6380
2018-06-10T06:50:52.671Z,6480
2018-06-10T06:51:53.234Z,6612
2018-06-10T06:52:52.785Z,6772
2018-06-10T06:53:53.181Z,6920
2018-06-10T06:54:53.179Z,7008
2018-06-10T06:55:53.184Z,7080
2018-06-10T06:56:52.672Z,7140
2018-06-10T07:04:53.182Z,8504
2018-06-10T07:05:53.192Z,8780
2018-06-10T07:06:52.661Z,9048
2018-06-10T07:07:53.172Z,9300
2018-06-10T07:08:53.180Z,9556
2018-06-10T07:09:52.916Z,9876
2018-06-10T07:10:53.187Z,10284
2018-06-10T07:11:52.925Z,10804
2018-06-10T07:12:53.179Z,11328
2018-06-10T07:13:53.181Z,11792
2018-06-10T07:14:53.171Z,12376
2018-06-10T07:15:52.918Z,13152
2018-06-10T07:16:52.916Z,13584
2018-06-10T07:17:52.922Z,14184
2018-06-10T07:18:53.170Z,14036
2018-06-10T07:19:52.915Z,13564
2018-06-10T07:20:52.916Z,13396
2018-06-10T07:21:53.177Z,13508
2018-06-10T07:22:53.178Z,13624
2018-06-10T07:23:53.061Z,13384
2018-06-10T07:24:52.926Z,13004
2018-06-10T07:25:53.183Z,12368
2018-06-10T07:26:53.189Z,11496
2018-06-10T07:27:53.181Z,10720
2018-06-10T07:28:52.928Z,10220
2018-06-10T07:29:53.181Z,10064
2018-06-10T07:30:52.933Z,10140
2018-06-10T07:31:52.671Z,10384
2018-06-10T07:32:52.925Z,10636
2018-06-10T07:33:52.933Z,10832
2018-06-10T07:34:52.415Z,10844
2018-06-10T07:35:53.193Z,10592
2018-06-10T07:36:52.935Z,10172
2018-06-10T07:37:52.935Z,9720
2018-06-10T07:38:52.938Z,9436
2018-06-10T07:39:52.937Z,9440
2018-06-10T07:40:52.939Z,9748
2018-06-10T07:41:52.943Z,10260
2018-06-10T07:42:53.199Z,10796
2018-06-10T07:43:52.942Z,11256
2018-06-10T07:44:53.196Z,11652
2018-06-10T07:45:53.195Z,11976
2018-06-10T07:46:52.951Z,12288
2018-06-10T07:47:52.946Z,12652
2018-06-10T07:48:53.212Z,13020
2018-06-10T07:49:53.212Z,13328
2018-06-10T07:50:52.947Z,13580
2018-06-10T07:51:53.213Z,13684
2018-06-10T07:52:52.693Z,13628
2018-06-10T07:53:53.215Z,13368
2018-06-10T07:54:53.237Z,13160
2018-06-10T07:55:52.702Z,13088
2018-06-10T07:56:52.959Z,13040
2018-06-10T07:57:53.216Z,13056
2018-06-10T07:58:52.961Z,13100
2018-06-10T07:59:53.218Z,13308
2018-06-10T08:00:52.709Z,13620
2018-06-10T08:01:52.711Z,13852
2018-06-10T08:02:53.217Z,14036
2018-06-10T08:03:53.227Z,14136
2018-06-10T08:04:53.228Z,14192
2018-06-10T08:05:52.716Z,14192
2018-06-10T08:06:53.230Z,14156
2018-06-10T08:07:53.236Z,14056
2018-06-10T08:08:53.232Z,13848
2018-06-10T08:09:52.979Z,13588
2018-06-10T08:10:52.987Z,13296
2018-06-10T08:11:53.340Z,13068
2018-06-10T08:12:52.749Z,12904
2018-06-10T08:13:53.262Z,12800
2018-06-10T08:14:52.990Z,12724
2018-06-10T08:15:52.989Z,12716
2018-06-10T08:16:53.273Z,12768
2018-06-10T08:17:53.254Z,12880
2018-06-10T08:18:53.557Z,12956
2018-06-10T08:19:53.260Z,13040
2018-06-10T08:20:53.272Z,13192
2018-06-10T08:21:53.268Z,13564
2018-06-10T08:22:53.012Z,13984
2018-06-10T08:23:53.015Z,14664
2018-06-10T08:24:53.271Z,14836
2018-06-10T08:25:53.017Z,15176
2018-06-10T08:26:53.284Z,15708
2018-06-10T08:27:53.023Z,16148
2018-06-10T08:28:53.281Z,16800
2018-06-10T08:29:53.279Z,17504
2018-06-10T08:30:53.285Z,18880
2018-06-10T08:31:53.320Z,20384
2018-06-10T08:32:53.294Z,20800
2018-06-10T08:33:52.779Z,21056
2018-06-10T08:34:53.319Z,20960
2018-06-10T08:35:53.037Z,20480
2018-06-10T08:36:53.305Z,20448
2018-06-10T08:37:53.308Z,20704
2018-06-10T08:38:53.301Z,20192
2018-06-10T08:39:53.048Z,19936
2018-06-10T08:40:53.303Z,19808
2018-06-10T08:41:53.305Z,19712
2018-06-10T08:42:53.065Z,19776
2018-06-10T08:43:53.552Z,20416
2018-06-10T08:44:53.069Z,20064
2018-06-10T08:45:53.326Z,19456
2018-06-10T08:46:53.331Z,18880
2018-06-10T08:47:53.336Z,18272
2018-06-10T08:48:52.826Z,17920
2018-06-10T08:49:53.334Z,17600
2018-06-10T08:50:53.355Z,17440
2018-06-10T08:51:53.106Z,17280
2018-06-10T08:52:53.363Z,17216
2018-06-10T08:53:53.351Z,17088
2018-06-10T08:54:53.356Z,16928
2018-06-10T08:55:53.364Z,16736
2018-06-10T08:56:53.412Z,16284
2018-06-10T08:57:53.135Z,16304
2018-06-10T08:58:52.862Z,16264
2018-06-10T08:59:53.372Z,15768
2018-06-10T09:00:53.385Z,14836
2018-06-10T09:01:53.381Z,14528
2018-06-10T09:02:53.293Z,13872
2018-06-10T09:03:53.391Z,12644
2018-06-10T09:04:53.144Z,11652
2018-06-10T09:05:52.885Z,11008
2018-06-10T09:06:53.404Z,10948
2018-06-10T09:07:53.400Z,11852
2018-06-10T09:08:53.796Z,13484
2018-06-10T09:09:52.895Z,14860
2018-06-10T09:10:53.158Z,16104
2018-06-10T09:11:53.167Z,16864
2018-06-10T09:12:53.439Z,17056
2018-06-10T09:13:52.911Z,17120
2018-06-10T09:14:53.620Z,17216
2018-06-10T09:15:53.175Z,17312
2018-06-10T09:16:53.439Z,17440
2018-06-10T09:17:53.433Z,17632
2018-06-10T09:18:53.449Z,17664
2018-06-10T09:19:53.444Z,17632
2018-06-10T09:20:53.445Z,17824
2018-06-10T09:21:53.204Z,17856
2018-06-10T09:22:53.201Z,17856
2018-06-10T09:23:53.201Z,18112
2018-06-10T09:24:53.463Z,18368
2018-06-10T09:25:53.464Z,18528
2018-06-10T09:26:53.212Z,18208
2018-06-10T09:27:53.471Z,17408
2018-06-10T09:28:53.707Z,18368
2018-06-10T09:29:52.970Z,19424
2018-06-10T09:30:53.485Z,19648
2018-06-10T09:31:53.487Z,19584
2018-06-10T09:32:53.495Z,19200
2018-06-10T09:33:53.496Z,18592
2018-06-10T09:34:53.498Z,18656
2018-06-10T09:35:53.250Z,19136
2018-06-10T09:36:53.511Z,18624
2018-06-10T09:37:53.251Z,17408
2018-06-10T09:38:53.256Z,16224
2018-06-10T09:39:53.518Z,16000
2018-06-10T09:40:53.264Z,16352
2018-06-10T09:41:53.267Z,16512
2018-06-10T09:42:53.019Z,16224
2018-06-10T09:43:53.533Z,16224
2018-06-10T09:44:53.289Z,16992
2018-06-10T09:45:53.279Z,17920
2018-06-10T09:46:53.286Z,18720
2018-06-10T09:47:53.287Z,19008
2018-06-10T09:48:53.291Z,19136
2018-06-10T09:49:53.679Z,19648
2018-06-10T09:50:53.314Z,19808
2018-06-10T09:51:53.308Z,19392
2018-06-10T09:52:53.577Z,19424
2018-06-10T09:53:53.318Z,19552
2018-06-10T09:54:53.581Z,19712
2018-06-10T09:55:53.586Z,19776
2018-06-10T09:56:53.578Z,19456
2018-06-10T09:57:53.585Z,18624
2018-06-10T09:58:53.604Z,17952
2018-06-10T09:59:53.598Z,17888
2018-06-10T10:00:53.603Z,18016
2018-06-10T10:01:53.604Z,18528
2018-06-10T10:02:53.946Z,18880
2018-06-10T10:03:53.363Z,18656
2018-06-10T10:04:53.614Z,18464
2018-06-10T10:05:53.366Z,18784
2018-06-10T10:06:53.366Z,18976
2018-06-10T10:07:53.671Z,18944
2018-06-10T10:08:53.517Z,19040
2018-06-10T10:09:53.641Z,19072
2018-06-10T10:10:53.649Z,18976
2018-06-10T10:11:53.642Z,18912
2018-06-10T10:12:53.392Z,18720
2018-06-10T10:13:53.651Z,18464
2018-06-10T10:14:53.898Z,18048
2018-06-10T10:15:53.665Z,17728
2018-06-10T10:16:53.158Z,17440
2018-06-10T10:17:53.676Z,17152
2018-06-10T10:18:53.681Z,16704
2018-06-10T10:19:53.420Z,16028
2018-06-10T10:20:53.735Z,15464
2018-06-10T10:21:53.435Z,15044
2018-06-10T10:22:53.442Z,14832
2018-06-10T10:23:53.182Z,14820
2018-06-10T10:24:53.441Z,15076
2018-06-10T10:25:53.488Z,15496
2018-06-10T10:26:53.451Z,15864
2018-06-10T10:27:53.716Z,16136
2018-06-10T10:28:53.719Z,16512
2018-06-10T10:29:53.216Z,16736
2018-06-10T10:30:53.217Z,17088
2018-06-10T10:31:53.914Z,17600
2018-06-10T10:32:53.220Z,18720
2018-06-10T10:33:53.488Z,19008
2018-06-10T10:34:53.484Z,19072
2018-06-10T10:35:53.744Z,19072
2018-06-10T10:36:53.497Z,19072
2018-06-10T10:37:53.755Z,18880
2018-06-10T10:38:53.767Z,18080
2018-06-10T10:39:53.503Z,17056
2018-06-10T10:40:53.509Z,16128
2018-06-10T10:41:53.776Z,15052
2018-06-10T10:42:53.781Z,13956
2018-06-10T10:43:53.784Z,13792
2018-06-10T10:44:53.788Z,12620
2018-06-10T10:45:53.783Z,10056
2018-06-10T10:46:53.791Z,8292
2018-06-10T10:47:53.796Z,7596
2018-06-10T10:48:53.671Z,7812
2018-06-10T10:49:53.807Z,8148
2018-06-10T10:50:53.550Z,8232
2018-06-10T10:51:53.563Z,9128
2018-06-10T10:52:53.560Z,9448
2018-06-10T10:53:53.561Z,9948
2018-06-10T10:54:53.579Z,9812
2018-06-10T10:55:53.825Z,10500
2018-06-10T10:56:53.836Z,11132
2018-06-10T10:57:53.622Z,11164
2018-06-10T10:58:53.588Z,10332
2018-06-10T10:59:53.590Z,9880
2018-06-10T11:00:53.593Z,10964
2018-06-10T11:01:53.656Z,11404
2018-06-10T11:02:53.871Z,11588
2018-06-10T11:03:53.872Z,12772
2018-06-10T11:04:53.868Z,13368
2018-06-10T11:05:53.874Z,13036
2018-06-10T11:06:53.882Z,12020
2018-06-10T11:07:53.881Z,10288
2018-06-10T11:08:53.637Z,9060
2018-06-10T11:09:53.883Z,9000
2018-06-10T11:10:53.638Z,8232
2018-06-10T11:11:53.900Z,7056
2018-06-10T11:12:53.642Z,6716
2018-06-10T11:13:53.947Z,6568
2018-06-10T11:14:54.083Z,6424
2018-06-10T11:15:53.920Z,5984
2018-06-10T11:16:53.917Z,6672
2018-06-10T11:17:53.925Z,6864
2018-06-10T11:18:53.412Z,6156
2018-06-10T11:19:53.926Z,5372
2018-06-10T11:20:53.673Z,5188
2018-06-10T11:21:53.941Z,5768
2018-06-10T11:22:53.950Z,7116
2018-06-10T11:23:53.947Z,9304
2018-06-10T11:24:53.689Z,8444
2018-06-10T11:25:53.954Z,7048
2018-06-10T11:26:53.709Z,7852
2018-06-10T11:27:53.959Z,7736
2018-06-10T11:28:54.009Z,7612
2018-06-10T11:29:53.707Z,6984
2018-06-10T11:30:53.963Z,6136
2018-06-10T11:31:53.969Z,5420
2018-06-10T11:32:53.719Z,4984
2018-06-10T11:33:53.979Z,4756
2018-06-10T11:34:53.731Z,4732
2018-06-10T11:35:53.986Z,4892
2018-06-10T11:36:53.990Z,5068
2018-06-10T11:37:53.740Z,5348
2018-06-10T11:38:54.005Z,5808
2018-06-10T11:39:53.749Z,6256
2018-06-10T11:40:53.750Z,6436
2018-06-10T11:41:54.009Z,6376
2018-06-10T11:42:54.014Z,6316
2018-06-10T11:43:54.019Z,6208
2018-06-10T11:44:53.769Z,5888
2018-06-10T11:45:54.031Z,6348
2018-06-10T11:46:54.025Z,6396
2018-06-10T11:47:53.770Z,6524
2018-06-10T11:48:54.049Z,6500
2018-06-10T11:49:54.037Z,6300
2018-06-10T11:50:54.043Z,6096
2018-06-10T11:51:53.837Z,6112
2018-06-10T11:52:53.801Z,6428
2018-06-10T11:53:53.804Z,6648
2018-06-10T11:54:53.803Z,6204
2018-06-10T11:55:54.059Z,5896
2018-06-10T11:56:53.819Z,6096
2018-06-10T11:57:53.942Z,6404
2018-06-10T11:58:54.072Z,6420
2018-06-10T11:59:53.823Z,5704
2018-06-10T12:00:53.826Z,5212
2018-06-10T12:01:53.839Z,4916
2018-06-10T12:02:54.096Z,5068
2018-06-10T12:03:53.840Z,6168
2018-06-10T12:04:53.583Z,7348
2018-06-10T12:05:53.599Z,8536
2018-06-10T12:06:54.102Z,9052
2018-06-10T12:07:54.243Z,9540
2018-06-10T12:08:54.114Z,9908
2018-06-10T12:09:53.862Z,9824
2018-06-10T12:10:54.381Z,9124
2018-06-10T12:11:53.610Z,9020
2018-06-10T12:12:54.123Z,9636
2018-06-10T12:13:54.069Z,10336
2018-06-10T12:14:53.885Z,10092
2018-06-10T12:15:53.886Z,10124
2018-06-10T12:16:54.150Z,10120
2018-06-10T12:17:54.141Z,10280
2018-06-10T12:18:53.638Z,10476
2018-06-10T12:19:54.153Z,10276
2018-06-10T12:20:53.897Z,10356
2018-06-10T12:21:53.907Z,10524
2018-06-10T12:22:54.569Z,10976
2018-06-10T12:23:54.173Z,11880
2018-06-10T12:24:54.170Z,12972
2018-06-10T12:25:54.175Z,12780
2018-06-10T12:26:54.180Z,12608
2018-06-10T12:27:53.928Z,13352
2018-06-10T12:28:54.190Z,13192
2018-06-10T12:29:54.192Z,13556
2018-06-10T12:30:54.209Z,13140
2018-06-10T12:31:53.951Z,12160
2018-06-10T12:32:53.948Z,11148
2018-06-10T12:33:54.216Z,10324
2018-06-10T12:34:54.218Z,9160
2018-06-10T12:35:54.009Z,8056
2018-06-10T12:36:54.224Z,7252
2018-06-10T12:37:54.226Z,6836
2018-06-10T12:38:54.234Z,6304
2018-06-10T12:39:54.231Z,5912
2018-06-10T12:40:53.992Z,5536
2018-06-10T12:41:54.250Z,5140
2018-06-10T12:42:54.247Z,4648
2018-06-10T12:43:53.998Z,4224
2018-06-10T12:44:54.260Z,3852
2018-06-10T12:45:54.266Z,3836
2018-06-10T12:46:54.015Z,4124
2018-06-10T12:47:54.266Z,4540
2018-06-10T12:48:54.270Z,5012
2018-06-10T12:49:54.271Z,5560
2018-06-10T12:50:54.278Z,6372
2018-06-10T12:51:54.284Z,7648
2018-06-10T12:52:54.280Z,9016
2018-06-10T12:53:54.291Z,10172
2018-06-10T12:54:54.032Z,10992
2018-06-10T12:55:53.788Z,11520
2018-06-10T12:56:54.477Z,11884
2018-06-10T12:57:54.310Z,12176
2018-06-10T12:58:54.047Z,12428
2018-06-10T12:59:54.047Z,12624
2018-06-10T13:00:54.052Z,12880
2018-06-10T13:01:54.056Z,13036
2018-06-10T13:02:54.335Z,13184
2018-06-10T13:03:54.065Z,13180
2018-06-10T13:04:54.326Z,13100
2018-06-10T13:05:54.337Z,13152
2018-06-10T13:06:53.816Z,12836
2018-06-10T13:07:54.081Z,12536
2018-06-10T13:08:54.346Z,12216
2018-06-10T13:09:54.348Z,11872
2018-06-10T13:10:54.082Z,11532
2018-06-10T13:11:54.345Z,11096
2018-06-10T13:12:54.092Z,10804
2018-06-10T13:13:54.095Z,10368
2018-06-10T13:14:54.354Z,9260
2018-06-10T13:15:53.846Z,7616
2018-06-10T13:16:54.361Z,6028
2018-06-10T13:17:53.852Z,4632
2018-06-10T13:18:54.118Z,3684
2018-06-10T13:19:54.115Z,3184
2018-06-10T13:20:54.374Z,2748
2018-06-10T13:21:54.377Z,2536
2018-06-10T13:22:54.379Z,2500
2018-06-10T13:23:54.386Z,2204
2018-06-10T13:24:54.129Z,1868
2018-06-10T13:25:54.385Z,2232
2018-06-10T13:26:54.402Z,2572
2018-06-10T13:27:54.151Z,2724
2018-06-10T13:28:53.625Z,2940
2018-06-10T13:29:54.403Z,3556
2018-06-10T13:30:53.891Z,4496
2018-06-10T13:31:54.409Z,5304
2018-06-10T13:32:54.402Z,5720
2018-06-10T13:33:54.633Z,5992
2018-06-10T13:34:54.402Z,6164
2018-06-10T13:35:54.411Z,6440
2018-06-10T13:36:54.152Z,6800